createdAt,value
2023-03-06T00:02:26.686Z,25.97
2023-03-06T00:04:56.695Z,27.23
2023-03-06T00:07:25.218Z,30.93
2023-03-06T00:09:53.877Z,29.07
2023-03-06T00:12:23.930Z,30.60
2023-03-06T00:14:52.825Z,29.50
2023-03-06T00:17:21.312Z,30.27
2023-03-06T00:19:49.883Z,30.03
2023-03-06T00:22:18.663Z,27.77
2023-03-06T00:24:47.587Z,26.10
2023-03-06T00:27:17.269Z,27.37
2023-03-06T00:29:49.243Z,27.07
2023-03-06T00:32:18.106Z,27.47
2023-03-06T00:34:50.962Z,27.77
2023-03-06T00:37:19.785Z,26.20
2023-03-06T00:39:49.582Z,22.80
2023-03-06T00:42:19.653Z,26.93
2023-03-06T00:44:49.621Z,26.43
2023-03-06T00:47:18.323Z,24.53
2023-03-06T00:49:47.570Z,26.87
2023-03-06T00:52:16.248Z,29.13
2023-03-06T00:54:45.241Z,26.77
2023-03-06T00:57:14.039Z,29.57
2023-03-06T00:59:42.957Z,26.60
2023-03-06T01:02:13.428Z,26.03
2023-03-06T01:04:42.230Z,28.80
2023-03-06T01:07:10.988Z,24.97
2023-03-06T01:09:40.026Z,27.40
2023-03-06T01:12:09.512Z,26.27
2023-03-06T01:14:37.997Z,28.47
2023-03-06T01:17:07.762Z,28.63
2023-03-06T01:19:37.710Z,22.33
2023-03-06T01:22:06.817Z,26.50
2023-03-06T01:24:35.325Z,26.77
2023-03-06T01:27:04.050Z,29.47
2023-03-06T01:29:32.806Z,27.00
2023-03-06T01:32:02.279Z,26.63
2023-03-06T01:34:31.009Z,27.17
2023-03-06T01:37:01.007Z,26.60
2023-03-06T01:39:31.684Z,25.73
2023-03-06T01:42:00.317Z,27.53
2023-03-06T01:44:28.832Z,29.87
2023-03-06T01:46:57.484Z,25.17
2023-03-06T01:49:32.763Z,27.43
2023-03-06T01:52:10.049Z,23.80
2023-03-06T01:54:46.074Z,28.67
2023-03-06T01:57:20.423Z,24.97
2023-03-06T01:59:53.199Z,26.93
2023-03-06T02:02:22.358Z,31.67
2023-03-06T02:04:50.969Z,27.63
2023-03-06T02:07:22.371Z,23.60
2023-03-06T02:09:50.877Z,24.57
2023-03-06T02:12:21.702Z,24.63
2023-03-06T02:14:51.275Z,24.27
2023-03-06T02:17:23.232Z,26.30
2023-03-06T02:20:00.467Z,25.73
2023-03-06T02:22:39.285Z,24.73
2023-03-06T02:25:27.747Z,26.10
2023-03-06T02:27:56.281Z,25.00
2023-03-06T02:30:29.106Z,26.20
2023-03-06T02:32:58.558Z,25.37
2023-03-06T02:35:30.300Z,21.80
2023-03-06T02:38:04.053Z,24.17
2023-03-06T02:40:33.956Z,27.53
2023-03-06T02:43:02.832Z,27.13
2023-03-06T02:45:38.092Z,30.40
2023-03-06T02:48:07.773Z,23.20
2023-03-06T02:50:36.359Z,24.50
2023-03-06T02:53:05.024Z,25.57
2023-03-06T02:55:35.322Z,29.33
2023-03-06T02:58:04.386Z,24.27
2023-03-06T03:00:34.003Z,22.77
2023-03-06T03:03:02.632Z,24.53
2023-03-06T03:05:31.161Z,22.87
2023-03-06T03:07:59.908Z,22.70
2023-03-06T03:10:28.907Z,21.67
2023-03-06T03:12:59.449Z,25.37
2023-03-06T03:15:28.016Z,22.73
2023-03-06T03:17:56.921Z,24.27
2023-03-06T03:20:25.592Z,18.67
2023-03-06T03:22:56.587Z,21.57
2023-03-06T03:25:27.054Z,23.57
2023-03-06T03:27:55.656Z,21.50
2023-03-06T03:30:25.565Z,24.00
2023-03-06T03:32:54.154Z,19.50
2023-03-06T03:35:22.613Z,22.97
2023-03-06T03:37:52.704Z,24.70
2023-03-06T03:40:21.601Z,24.60
2023-03-06T03:42:50.123Z,23.93
2023-03-06T03:45:19.069Z,22.60
2023-03-06T03:47:48.846Z,26.53
2023-03-06T03:50:17.518Z,26.70
2023-03-06T03:52:46.104Z,24.57
2023-03-06T03:55:15.245Z,21.27
2023-03-06T03:57:43.769Z,26.33
2023-03-06T04:00:16.580Z,22.33
2023-03-06T04:02:46.449Z,20.70
2023-03-06T04:05:17.344Z,22.13
2023-03-06T04:07:45.936Z,20.77
2023-03-06T04:10:15.513Z,24.00
2023-03-06T04:12:44.218Z,22.03
2023-03-06T04:15:13.398Z,23.10
2023-03-06T04:17:41.846Z,20.17
2023-03-06T04:20:12.785Z,28.20
2023-03-06T04:22:42.656Z,25.67
2023-03-06T04:25:11.728Z,21.37
2023-03-06T04:27:40.673Z,23.13
2023-03-06T04:30:11.371Z,20.37
2023-03-06T04:32:39.969Z,23.37
2023-03-06T04:35:09.110Z,24.33
2023-03-06T04:37:37.515Z,23.40
2023-03-06T04:40:09.733Z,23.47
2023-03-06T04:42:38.193Z,25.30
2023-03-06T04:45:07.929Z,22.20
2023-03-06T04:47:36.849Z,23.97
2023-03-06T04:50:07.048Z,23.80
2023-03-06T04:52:35.594Z,21.63
2023-03-06T04:55:08.695Z,24.00
2023-03-06T04:57:39.378Z,22.10
2023-03-06T05:00:13.618Z,30.73
2023-03-06T05:02:44.149Z,25.60
2023-03-06T05:05:14.210Z,25.43
2023-03-06T05:07:43.010Z,26.47
2023-03-06T05:10:17.742Z,28.80
2023-03-06T05:12:47.615Z,27.00
2023-03-06T05:15:17.633Z,29.10
2023-03-06T05:17:47.604Z,27.87
2023-03-06T05:20:18.295Z,29.40
2023-03-06T05:22:46.833Z,30.20
2023-03-06T05:25:15.801Z,29.30
2023-03-06T05:27:44.395Z,27.77
2023-03-06T05:30:16.784Z,24.03
2023-03-06T05:32:46.042Z,25.57
2023-03-06T05:35:21.499Z,28.33
2023-03-06T05:37:50.647Z,22.87
2023-03-06T05:40:20.507Z,26.43
2023-03-06T05:42:49.009Z,26.13
2023-03-06T05:45:18.984Z,31.07
2023-03-06T05:47:47.692Z,30.23
2023-03-06T05:50:16.148Z,30.30
2023-03-06T05:52:44.621Z,30.33
2023-03-06T05:55:14.450Z,30.27
2023-03-06T05:57:42.814Z,26.57
2023-03-06T06:00:13.048Z,32.07
2023-03-06T06:02:43.807Z,30.23
2023-03-06T06:05:13.757Z,25.43
2023-03-06T06:07:42.509Z,25.77
2023-03-06T06:10:13.408Z,32.13
2023-03-06T06:12:42.353Z,30.00
2023-03-06T06:15:11.637Z,30.23
2023-03-06T06:17:40.077Z,27.97
2023-03-06T06:20:13.806Z,24.37
2023-03-06T06:22:42.640Z,27.13
2023-03-06T06:25:11.396Z,25.60
2023-03-06T06:27:39.931Z,27.27
2023-03-06T06:30:11.855Z,25.90
2023-03-06T06:32:40.721Z,23.23
2023-03-06T06:35:11.543Z,26.23
2023-03-06T06:37:40.016Z,19.97
2023-03-06T06:40:10.662Z,25.83
2023-03-06T06:42:40.254Z,29.13
2023-03-06T06:45:11.627Z,21.33
2023-03-06T06:47:41.929Z,25.30
2023-03-06T06:50:14.341Z,23.53
2023-03-06T06:52:43.450Z,25.00
2023-03-06T06:55:13.971Z,26.57
2023-03-06T06:57:44.003Z,23.23
2023-03-06T07:00:17.127Z,24.37
2023-03-06T07:02:50.668Z,24.10
2023-03-06T07:05:21.765Z,22.90
2023-03-06T07:07:52.047Z,24.10
2023-03-06T07:10:21.657Z,26.27
2023-03-06T07:12:50.149Z,22.00
2023-03-06T07:15:19.669Z,23.33
2023-03-06T07:17:50.023Z,25.77
2023-03-06T07:20:21.528Z,30.27
2023-03-06T07:22:52.011Z,26.10
2023-03-06T07:25:23.614Z,25.70
2023-03-06T07:27:55.444Z,21.63
2023-03-06T07:30:26.416Z,23.93
2023-03-06T07:32:56.450Z,21.07
2023-03-06T07:35:27.366Z,23.90
2023-03-06T07:37:56.015Z,19.87
2023-03-06T07:40:25.108Z,22.50
2023-03-06T07:43:06.067Z,22.50
2023-03-06T07:45:41.700Z,22.17
2023-03-06T07:48:11.106Z,24.70
2023-03-06T07:50:41.948Z,25.07
2023-03-06T07:53:11.573Z,23.20
2023-03-06T07:55:42.577Z,24.83
2023-03-06T07:58:11.030Z,19.13
2023-03-06T08:00:39.776Z,19.33
2023-03-06T08:03:08.574Z,20.93
2023-03-06T08:05:37.374Z,18.87
2023-03-06T08:08:08.265Z,17.30
2023-03-06T08:10:36.715Z,16.03
2023-03-06T08:13:06.352Z,17.03
2023-03-06T08:15:34.733Z,16.20
2023-03-06T08:18:03.321Z,15.50
2023-03-06T08:20:31.895Z,15.90
2023-03-06T08:23:00.352Z,19.53
2023-03-06T08:25:30.460Z,15.13
2023-03-06T08:28:02.173Z,15.63
2023-03-06T08:30:31.662Z,14.63
2023-03-06T08:33:01.411Z,16.53
2023-03-06T08:35:29.933Z,15.47
2023-03-06T08:37:58.601Z,18.53
2023-03-06T08:40:30.979Z,19.53
2023-03-06T08:43:02.118Z,15.40
2023-03-06T08:45:30.715Z,13.83
2023-03-06T08:47:59.091Z,15.67
2023-03-06T08:50:27.540Z,14.23
2023-03-06T08:52:55.926Z,16.80
2023-03-06T08:55:24.335Z,14.67
2023-03-06T08:57:52.779Z,12.00
2023-03-06T09:00:23.219Z,13.37
2023-03-06T09:02:51.828Z,11.67
2023-03-06T09:05:20.657Z,14.57
2023-03-06T09:07:49.149Z,12.93
2023-03-06T09:10:20.867Z,13.77
2023-03-06T09:12:52.511Z,16.47
2023-03-06T09:15:25.124Z,9.93
2023-03-06T09:17:58.240Z,12.93
2023-03-06T09:20:26.660Z,10.67
2023-03-06T09:22:55.180Z,10.67
2023-03-06T09:25:23.836Z,14.13
2023-03-06T09:28:08.680Z,12.20
2023-03-06T09:30:42.152Z,11.33
2023-03-06T09:33:10.694Z,14.47
2023-03-06T09:35:48.575Z,14.73
2023-03-06T09:38:17.266Z,12.37
2023-03-06T09:41:03.159Z,13.37
2023-03-06T09:43:36.972Z,13.13
2023-03-06T09:46:21.832Z,12.80
2023-03-06T09:49:10.293Z,15.27
2023-03-06T09:51:58.508Z,15.00
2023-03-06T09:54:39.580Z,12.43
2023-03-06T09:57:20.374Z,14.07
2023-03-06T09:59:53.317Z,10.37
2023-03-06T10:02:32.984Z,11.00
2023-03-06T10:05:09.493Z,9.03
2023-03-06T10:07:46.705Z,15.70
2023-03-06T10:10:23.458Z,12.00
2023-03-06T10:13:03.462Z,9.23
2023-03-06T10:15:36.225Z,5.60
2023-03-06T10:18:07.052Z,7.20
2023-03-06T10:20:43.884Z,10.03
2023-03-06T10:23:42.882Z,10.03
2023-03-06T10:26:17.653Z,11.57
2023-03-06T10:28:53.907Z,8.07
2023-03-06T10:31:26.160Z,6.83
2023-03-06T10:33:59.155Z,7.07
2023-03-06T10:36:29.818Z,10.70
2023-03-06T10:39:00.917Z,8.90
2023-03-06T10:41:31.482Z,10.80
2023-03-06T10:44:20.914Z,12.63
2023-03-06T10:46:52.695Z,14.07
2023-03-06T10:49:31.307Z,12.53
2023-03-06T10:52:03.279Z,11.07
2023-03-06T10:54:34.602Z,5.50
2023-03-06T10:57:26.570Z,5.13
2023-03-06T10:59:57.118Z,5.30
2023-03-06T11:02:32.545Z,9.07
2023-03-06T11:05:04.762Z,9.10
2023-03-06T11:07:34.603Z,11.13
2023-03-06T11:10:18.016Z,9.47
2023-03-06T11:13:00.350Z,14.60
2023-03-06T11:15:30.090Z,11.70
2023-03-06T11:18:04.481Z,17.90
2023-03-06T11:20:52.167Z,13.13
2023-03-06T11:23:30.113Z,12.13
2023-03-06T11:26:03.357Z,11.07
2023-03-06T11:28:35.937Z,11.93
2023-03-06T11:31:11.713Z,8.97
2023-03-06T11:33:48.880Z,9.50
2023-03-06T11:36:27.585Z,9.60
2023-03-06T11:38:56.442Z,12.10
2023-03-06T11:41:38.389Z,11.63
2023-03-06T11:44:20.114Z,8.43
2023-03-06T11:46:56.628Z,15.23
2023-03-06T11:49:33.288Z,10.20
2023-03-06T11:52:11.761Z,11.87
2023-03-06T11:54:40.341Z,9.70
2023-03-06T11:57:16.692Z,14.10
2023-03-06T12:00:30.558Z,10.57
2023-03-06T12:03:48.342Z,6.37
2023-03-06T12:06:30.801Z,7.70
2023-03-06T12:09:26.610Z,9.20
2023-03-06T12:15:16.334Z,12.83
2023-03-06T12:18:06.564Z,11.47
2023-03-06T12:20:51.915Z,8.63
2023-03-06T12:23:41.852Z,10.10
2023-03-06T12:26:52.761Z,11.40
2023-03-06T12:29:37.562Z,12.13
2023-03-06T12:32:21.323Z,8.80
2023-03-06T12:35:30.450Z,9.97
2023-03-06T12:38:19.207Z,9.13
2023-03-06T12:41:06.248Z,11.33
2023-03-06T12:44:37.678Z,10.47
2023-03-06T12:47:11.886Z,10.53
2023-03-06T12:49:46.045Z,13.30
2023-03-06T12:52:30.249Z,12.63
2023-03-06T12:55:03.011Z,11.73
2023-03-06T12:57:31.581Z,15.37
2023-03-06T13:00:00.306Z,12.23
2023-03-06T13:03:12.540Z,12.40
2023-03-06T13:06:23.041Z,13.23
2023-03-06T13:09:18.853Z,11.63
2023-03-06T13:12:07.553Z,18.03
2023-03-06T13:14:58.691Z,13.53
2023-03-06T13:17:43.297Z,14.27
2023-03-06T13:20:43.142Z,16.27
2023-03-06T13:23:51.862Z,16.90
2023-03-06T13:27:00.892Z,14.97
2023-03-06T13:30:23.335Z,14.63
2023-03-06T13:32:54.168Z,12.43
2023-03-06T13:35:54.349Z,15.93
2023-03-06T13:39:10.037Z,12.70
2023-03-06T13:41:58.791Z,15.67
2023-03-06T13:44:51.218Z,14.37
2023-03-06T13:48:09.589Z,14.03
2023-03-06T13:50:50.306Z,14.77
2023-03-06T13:54:05.072Z,13.57
2023-03-06T13:57:38.259Z,15.07
2023-03-06T14:00:35.254Z,15.50
2023-03-06T14:04:04.675Z,15.17
2023-03-06T14:06:54.188Z,17.77
2023-03-06T14:09:29.798Z,15.70
2023-03-06T14:12:06.213Z,15.53
2023-03-06T14:14:43.409Z,17.77
2023-03-06T14:17:26.813Z,15.97
2023-03-06T14:19:57.660Z,16.60
2023-03-06T14:22:27.466Z,15.87
2023-03-06T14:25:03.539Z,17.00
2023-03-06T14:27:45.713Z,16.23
2023-03-06T14:30:18.494Z,16.80
2023-03-06T14:32:49.958Z,18.40
2023-03-06T14:35:29.523Z,18.27
2023-03-06T14:38:03.336Z,17.30
2023-03-06T14:40:36.394Z,17.13
2023-03-06T14:43:23.814Z,17.17
2023-03-06T14:45:56.379Z,17.57
2023-03-06T14:48:27.100Z,19.83
2023-03-06T14:50:58.104Z,19.07
2023-03-06T14:53:31.393Z,24.43
2023-03-06T14:56:05.929Z,21.37
2023-03-06T14:58:39.606Z,23.83
2023-03-06T15:01:13.278Z,23.80
2023-03-06T15:03:46.835Z,20.97
2023-03-06T15:06:21.617Z,25.77
2023-03-06T15:09:00.001Z,19.90
2023-03-06T15:11:28.493Z,31.03
2023-03-06T15:14:04.599Z,21.47
2023-03-06T15:16:33.179Z,23.10
2023-03-06T15:19:03.863Z,23.03
2023-03-06T15:21:36.699Z,27.37
2023-03-06T15:24:33.238Z,25.30
2023-03-06T15:27:08.860Z,22.50
2023-03-06T15:29:40.133Z,21.57
2023-03-06T15:32:29.096Z,22.87
2023-03-06T15:35:27.692Z,25.93
2023-03-06T15:37:58.203Z,28.13
2023-03-06T15:40:31.985Z,25.03
2023-03-06T15:43:01.243Z,25.67
2023-03-06T15:45:32.096Z,27.77
2023-03-06T15:48:00.553Z,26.93
2023-03-06T15:50:30.741Z,27.77
2023-03-06T15:52:59.192Z,28.27
2023-03-06T15:55:29.123Z,29.43
2023-03-06T15:58:02.153Z,27.50
2023-03-06T16:00:34.211Z,25.87
2023-03-06T16:03:05.309Z,27.30
2023-03-06T16:05:33.864Z,25.47
2023-03-06T16:08:02.234Z,27.20
2023-03-06T16:10:36.850Z,26.77
2023-03-06T16:13:09.681Z,27.37
2023-03-06T16:15:41.447Z,26.93
2023-03-06T16:18:13.357Z,30.20
2023-03-06T16:20:42.370Z,29.93
2023-03-06T16:23:11.496Z,29.93
2023-03-06T16:25:44.210Z,29.83
2023-03-06T16:28:15.767Z,31.23
2023-03-06T16:30:45.815Z,31.20
2023-03-06T16:33:15.233Z,29.07
2023-03-06T16:35:46.601Z,29.87
2023-03-06T16:38:16.316Z,30.33
2023-03-06T16:40:46.100Z,34.17
2023-03-06T16:43:16.187Z,30.60
2023-03-06T16:45:45.213Z,25.90
2023-03-06T16:48:18.392Z,32.30
2023-03-06T16:50:47.409Z,31.87
2023-03-06T16:53:16.517Z,31.63
2023-03-06T16:55:49.488Z,31.83
2023-03-06T16:58:18.068Z,33.10
2023-03-06T17:00:46.480Z,29.23
2023-03-06T17:03:16.802Z,28.90
2023-03-06T17:05:45.929Z,30.20
2023-03-06T17:08:14.434Z,32.50
2023-03-06T17:10:43.655Z,32.90
2023-03-06T17:13:13.646Z,29.33
2023-03-06T17:15:42.567Z,30.73
2023-03-06T17:18:10.942Z,28.23
2023-03-06T17:20:39.501Z,31.93
2023-03-06T17:23:07.999Z,28.07
2023-03-06T17:25:38.472Z,26.57
2023-03-06T17:28:07.007Z,28.67
2023-03-06T17:30:37.117Z,28.90
2023-03-06T17:33:05.644Z,28.70
2023-03-06T17:35:36.785Z,29.43
2023-03-06T17:38:05.464Z,27.13
2023-03-06T17:40:35.832Z,25.50
2023-03-06T17:43:04.782Z,27.57
2023-03-06T17:45:34.277Z,25.60
2023-03-06T17:48:04.132Z,26.50
2023-03-06T17:50:32.498Z,26.70
2023-03-06T17:53:00.857Z,26.20
2023-03-06T17:55:30.013Z,26.43
2023-03-06T17:57:59.081Z,27.17
2023-03-06T18:00:28.401Z,24.37
2023-03-06T18:02:56.743Z,24.80
2023-03-06T18:05:26.556Z,28.23
2023-03-06T18:07:55.038Z,24.97
2023-03-06T18:10:23.692Z,27.13
2023-03-06T18:12:52.504Z,26.50
2023-03-06T18:15:22.585Z,26.07
2023-03-06T18:17:51.118Z,23.43
2023-03-06T18:20:19.809Z,24.40
2023-03-06T18:22:49.584Z,25.77
2023-03-06T18:25:18.365Z,22.63
2023-03-06T18:27:46.980Z,25.57
2023-03-06T18:30:16.232Z,25.57
2023-03-06T18:32:44.685Z,26.40
2023-03-06T18:35:13.210Z,28.47
2023-03-06T18:37:41.663Z,27.37
2023-03-06T18:40:13.912Z,24.33
2023-03-06T18:42:43.273Z,26.40
2023-03-06T18:45:13.275Z,26.57
2023-03-06T18:47:42.127Z,28.60
2023-03-06T18:50:16.510Z,28.13
2023-03-06T18:52:45.337Z,24.33
2023-03-06T18:55:15.709Z,26.70
2023-03-06T18:57:44.232Z,23.87
2023-03-06T19:00:15.674Z,26.13
2023-03-06T19:02:44.637Z,29.30
2023-03-06T19:05:13.231Z,29.33
2023-03-06T19:07:41.792Z,23.47
2023-03-06T19:10:12.700Z,25.03
2023-03-06T19:12:42.617Z,25.83
2023-03-06T19:15:11.810Z,25.30
2023-03-06T19:17:40.159Z,25.57
2023-03-06T19:20:10.295Z,27.63
2023-03-06T19:22:38.714Z,28.30
2023-03-06T19:25:09.011Z,26.90
2023-03-06T19:27:39.428Z,26.87
2023-03-06T19:30:11.815Z,26.70
2023-03-06T19:32:40.499Z,23.03
2023-03-06T19:35:11.065Z,24.87
2023-03-06T19:37:40.003Z,26.73
2023-03-06T19:40:12.954Z,22.80
2023-03-06T19:42:41.707Z,23.07
2023-03-06T19:45:13.149Z,24.20
2023-03-06T19:47:41.736Z,24.83
2023-03-06T19:50:11.949Z,20.70
2023-03-06T19:52:40.341Z,23.43
2023-03-06T19:55:10.538Z,21.87
2023-03-06T19:57:40.231Z,20.97
2023-03-06T20:00:12.474Z,18.77
2023-03-06T20:02:42.061Z,20.53
2023-03-06T20:05:11.103Z,20.37
2023-03-06T20:07:39.699Z,21.00
2023-03-06T20:10:09.512Z,19.03
2023-03-06T20:12:38.279Z,19.30
2023-03-06T20:15:08.815Z,19.77
2023-03-06T20:17:43.136Z,20.17
2023-03-06T20:20:13.569Z,20.97
2023-03-06T20:22:42.373Z,18.03
2023-03-06T20:25:11.493Z,20.97
2023-03-06T20:27:40.798Z,16.73
2023-03-06T20:30:14.144Z,16.23
2023-03-06T20:32:43.883Z,17.70
2023-03-06T20:35:12.886Z,13.47
2023-03-06T20:37:41.817Z,13.67
2023-03-06T20:40:12.197Z,14.73
2023-03-06T20:42:40.619Z,13.43
2023-03-06T20:45:10.424Z,12.27
2023-03-06T20:47:38.853Z,13.60
2023-03-06T20:50:10.079Z,12.47
2023-03-06T20:52:38.769Z,12.97
2023-03-06T20:55:08.746Z,15.00
2023-03-06T20:57:37.237Z,13.10
2023-03-06T21:00:08.789Z,14.67
2023-03-06T21:02:37.465Z,14.60
2023-03-06T21:05:06.704Z,14.47
2023-03-06T21:07:37.072Z,14.97
2023-03-06T21:10:06.900Z,15.30
2023-03-06T21:12:35.418Z,19.23
2023-03-06T21:15:03.905Z,17.30
2023-03-06T21:17:32.460Z,15.17
2023-03-06T21:20:00.889Z,20.57
2023-03-06T21:22:30.327Z,15.80
2023-03-06T21:25:00.055Z,14.60
2023-03-06T21:27:28.678Z,16.30
2023-03-06T21:29:57.118Z,15.63
2023-03-06T21:32:25.600Z,17.43
2023-03-06T21:34:54.201Z,15.63
2023-03-06T21:37:22.602Z,15.50
2023-03-06T21:39:51.135Z,17.03
2023-03-06T21:42:20.998Z,17.70
2023-03-06T21:44:49.522Z,16.40
2023-03-06T21:47:17.906Z,19.73
2023-03-06T21:49:46.280Z,20.43
2023-03-06T21:52:14.951Z,21.50
2023-03-06T21:54:43.637Z,17.83
2023-03-06T21:57:11.943Z,19.27
2023-03-06T21:59:42.026Z,20.37
2023-03-06T22:02:12.222Z,20.63
2023-03-06T22:04:41.634Z,22.23
2023-03-06T22:07:10.134Z,20.87
2023-03-06T22:09:38.491Z,21.40
2023-03-06T22:12:07.729Z,22.93
2023-03-06T22:14:36.235Z,26.43
2023-03-06T22:17:06.300Z,21.63
2023-03-06T22:19:35.093Z,25.90
2023-03-06T22:22:03.914Z,24.27
2023-03-06T22:24:32.540Z,26.50
2023-03-06T22:27:01.237Z,27.57
2023-03-06T22:29:29.674Z,26.90
2023-03-06T22:31:58.383Z,29.07
2023-03-06T22:34:28.233Z,29.63
2023-03-06T22:36:56.713Z,29.40
2023-03-06T22:39:25.385Z,31.43
2023-03-06T22:41:56.851Z,25.93
2023-03-06T22:44:25.449Z,32.67
2023-03-06T22:46:53.908Z,29.73
2023-03-06T22:49:22.780Z,27.93
2023-03-06T22:51:52.616Z,27.57
2023-03-06T22:54:21.027Z,28.53
2023-03-06T22:56:49.378Z,28.27
2023-03-06T22:59:17.842Z,33.50
2023-03-06T23:01:46.261Z,28.63
2023-03-06T23:04:14.753Z,31.00
2023-03-06T23:06:44.791Z,28.73
2023-03-06T23:09:18.281Z,29.03
2023-03-06T23:11:46.804Z,26.93
2023-03-06T23:14:17.015Z,28.27
2023-03-06T23:16:45.813Z,27.13
2023-03-06T23:19:14.323Z,26.03
2023-03-06T23:21:42.980Z,28.23
2023-03-06T23:24:11.750Z,29.77
2023-03-06T23:26:41.678Z,26.17
2023-03-06T23:29:10.028Z,26.00
2023-03-06T23:31:38.472Z,27.67
2023-03-06T23:34:07.097Z,26.57
2023-03-06T23:36:36.406Z,27.37
2023-03-06T23:39:05.177Z,29.53
2023-03-06T23:41:33.555Z,30.67
2023-03-06T23:44:03.346Z,31.50
2023-03-06T23:46:32.194Z,32.57
2023-03-06T23:49:00.816Z,32.47
2023-03-06T23:51:29.202Z,30.63
2023-03-06T23:54:00.545Z,29.53
2023-03-06T23:56:30.215Z,33.00
2023-03-06T23:58:58.605Z,31.43
